RJTT/HND METAR and TAF weather

Enter ICAO airport designator
Station Type Date Time Source
RJTT METAR 2020/06/06 20:30 UTC NOAA

RJTT 062030Z 02012KT 9999 FEW020 SCT050 BKN070 21/15 Q1008 NOSIG RMK 1CU020 3SC050 5AC070 A2977


Station Type Date Time Source
RJTT Decoded METAR 2020/06/06 20:30 UTC NOAA

Tokyo International Airport, Japan (RJTT) 35-33N 139-47E 8M
Jun 06, 2020 - 04:30 PM EDT / 2020.06.06 2030 UTC
Wind: from the NNE (020 degrees) at 14 MPH (12 KT):0
Visibility: greater than 7 mile(s):0
Sky conditions: mostly cloudy
Temperature: 69 F (21 C)
Dew Point: 59 F (15 C)
Relative Humidity: 68%
Pressure (altimeter): 29.77 in. Hg (1008 hPa)
ob: RJTT 062030Z 02012KT 9999 FEW020 SCT050 BKN070 21/15 Q1008 NOSIG RMK 1CU020 3SC050 5AC070 A2977
cycle: 20

Station Type Date Time Source
RJTT TAF 2020/06/06 18:30 UTC NOAA

TAF RJTT 061705Z 0618/0800 02012KT 9999 FEW015 BKN040
BECMG 0706/0709 08012KT
BECMG 0715/0718 04008KT

Example: see airport list